This is the latest recevied weather packets stored in our database for station/object PY2RMF-10. If no packets are shown the sender has not sent any weather packets the latest 10 day(s).
| Time | Temp. | Humidity | Pressure | Rain* | Wind** | Luminosity | Snow |
|---|---|---|---|---|---|---|---|
| 1777920511 | 30.56° C | 47% | 1005 hPa | - | - | - | - |
| 1777918711 | 30.56° C | 45% | 1005 hPa | - | - | - | - |
| 1777916911 | 30.56° C | 45% | 1005 hPa | - | - | - | - |
| 1777915112 | 32.22° C | 39% | 1005 hPa | - | - | - | - |
| 1777913311 | 35° C | 35% | 1005 hPa | - | - | - | - |
| 1777911511 | 36.11° C | 35% | 1005 hPa | - | - | - | - |
| 1777909711 | 33.33° C | 42% | 1006 hPa | - | - | - | - |
| 1777907911 | 31.67° C | 49% | 1006 hPa | - | - | - | - |
| 1777906111 | 27.78° C | 71% | 1007 hPa | - | - | - | - |
| 1777904312 | 24.44° C | 83% | 1007 hPa | - | - | - | - |
| 1777902511 | 23.89° C | 84% | 1008 hPa | - | - | - | - |
| 1777900711 | 22.78° C | 98% | 1008 hPa | - | - | - | - |
| 1777898911 | 20.56° C | 100% | 1008 hPa | - | - | - | - |
| 1777897111 | 19.44° C | 100% | 1008 hPa | - | - | - | - |
| 1777895311 | 18.89° C | 100% | 1007 hPa | - | - | - | - |
| 1777893512 | 17.78° C | 100% | 1007 hPa | - | - | - | - |
| 1777891711 | 17.78° C | 100% | 1007 hPa | - | - | - | - |
| 1777889911 | 16.67° C | 100% | 1007 hPa | - | - | - | - |
| 1777888111 | 16.67° C | 100% | 1006 hPa | - | - | - | - |
| 1777886311 | 16.67° C | 100% | 1006 hPa | - | - | - | - |
| 1777884511 | 16.67° C | 100% | 1005 hPa | - | - | - | - |
| 1777882712 | 16.67° C | 100% | 1005 hPa | - | - | - | - |
| 1777880911 | 16.11° C | 100% | 1005 hPa | - | - | - | - |
| 1777879111 | 16.11° C | 100% | 1005 hPa | - | - | - | - |
| 1777877311 | 16.11° C | 100% | 1006 hPa | - | - | - | - |
* Rain since midnight (hover to see other rain measurements)
** Current wind speed in m/s (hover to see current wind gust speed)